createdAt,value
2024-01-31T00:01:48.140Z,99844.50
2024-01-31T00:04:52.637Z,99843.16
2024-01-31T00:07:57.214Z,99842.06
2024-01-31T00:11:01.297Z,99843.25
2024-01-31T00:14:08.800Z,99846.25
2024-01-31T00:17:13.197Z,99836.00
2024-01-31T00:20:17.382Z,99837.06
2024-01-31T00:23:22.110Z,99843.59
2024-01-31T00:26:25.740Z,99839.63
2024-01-31T00:29:31.249Z,99843.22
2024-01-31T00:32:35.036Z,99836.22
2024-01-31T00:35:39.696Z,99841.47
2024-01-31T00:38:43.447Z,99836.81
2024-01-31T00:41:48.150Z,99835.28
2024-01-31T00:44:53.178Z,99828.97
2024-01-31T00:47:57.238Z,99835.63
2024-01-31T00:51:00.980Z,99836.88
2024-01-31T00:54:06.018Z,99833.75
2024-01-31T00:57:09.868Z,99835.28
2024-01-31T01:00:16.176Z,99828.16
2024-01-31T01:03:21.062Z,99824.84
2024-01-31T01:06:25.152Z,99828.75
2024-01-31T01:09:28.776Z,99830.28
2024-01-31T01:12:32.819Z,99829.38
2024-01-31T01:15:38.179Z,99828.16
2024-01-31T01:18:42.415Z,99831.84
2024-01-31T01:21:46.173Z,99834.09
2024-01-31T01:24:50.508Z,99827.25
2024-01-31T01:27:54.328Z,99827.66
2024-01-31T01:31:00.153Z,99828.63
2024-01-31T01:34:03.994Z,99827.94
2024-01-31T01:37:08.102Z,99822.66
2024-01-31T01:40:12.436Z,99830.56
2024-01-31T01:43:19.035Z,99826.84
2024-01-31T01:46:25.612Z,99815.63
2024-01-31T01:49:30.728Z,99817.41
2024-01-31T01:52:35.860Z,99814.53
2024-01-31T01:55:41.287Z,99815.06
2024-01-31T01:58:45.605Z,99800.34
2024-01-31T02:01:51.919Z,99809.13
2024-01-31T02:04:56.125Z,99796.00
2024-01-31T02:08:01.172Z,99789.81
2024-01-31T02:11:05.287Z,99787.09
2024-01-31T02:14:09.343Z,99785.59
2024-01-31T02:17:14.590Z,99777.97
2024-01-31T02:20:18.813Z,99775.09
2024-01-31T02:23:24.344Z,99777.97
2024-01-31T02:26:28.929Z,99778.28
2024-01-31T02:29:32.616Z,99772.38
2024-01-31T02:32:37.023Z,99771.44
2024-01-31T02:35:41.004Z,99766.91
2024-01-31T02:38:47.110Z,99762.00
2024-01-31T02:41:51.040Z,99769.72
2024-01-31T02:44:55.336Z,99773.91
2024-01-31T02:47:59.203Z,99765.59
2024-01-31T02:51:03.183Z,99770.91
2024-01-31T02:54:08.518Z,99756.72
2024-01-31T02:57:12.971Z,99762.84
2024-01-31T03:00:17.879Z,99760.13
2024-01-31T03:03:22.734Z,99763.06
2024-01-31T03:06:26.748Z,99761.69
2024-01-31T03:09:32.491Z,99755.41
2024-01-31T03:12:36.292Z,99749.91
2024-01-31T03:15:40.340Z,99756.75
2024-01-31T03:18:44.049Z,99752.34
2024-01-31T03:21:48.045Z,99758.19
2024-01-31T03:24:53.218Z,99753.50
2024-01-31T03:27:57.238Z,99752.81
2024-01-31T03:31:00.979Z,99746.16
2024-01-31T03:34:06.258Z,99744.63
2024-01-31T03:37:10.167Z,99748.34
2024-01-31T03:40:15.679Z,99749.94
2024-01-31T03:43:19.398Z,99743.00
2024-01-31T03:46:25.841Z,99751.22
2024-01-31T03:49:29.742Z,99743.75
2024-01-31T03:52:36.928Z,99737.28
2024-01-31T03:55:42.702Z,99735.28
2024-01-31T03:58:46.944Z,99737.41
2024-01-31T04:01:52.075Z,99733.47
2024-01-31T04:04:56.239Z,99732.13
2024-01-31T04:08:00.037Z,99724.03
2024-01-31T04:11:06.014Z,99724.97
2024-01-31T04:14:09.882Z,99723.50
2024-01-31T04:17:14.080Z,99718.56
2024-01-31T04:20:18.197Z,99718.28
2024-01-31T04:23:22.403Z,99715.91
2024-01-31T04:26:27.929Z,99710.47
2024-01-31T04:29:32.164Z,99712.56
2024-01-31T04:32:36.411Z,99716.72
2024-01-31T04:35:40.716Z,99729.28
2024-01-31T04:38:44.491Z,99721.34
2024-01-31T04:41:50.194Z,99726.28
2024-01-31T04:44:53.924Z,99715.16
2024-01-31T04:47:58.312Z,99715.56
2024-01-31T04:51:04.675Z,99721.34
2024-01-31T04:54:08.946Z,99705.63
2024-01-31T04:57:14.297Z,99711.31
2024-01-31T05:00:19.437Z,99703.78
2024-01-31T05:03:23.543Z,99711.88
2024-01-31T05:06:27.868Z,99712.41
2024-01-31T05:09:31.883Z,99711.72
2024-01-31T05:12:37.462Z,99714.72
2024-01-31T05:15:41.441Z,99718.69
2024-01-31T05:18:45.895Z,99717.06
2024-01-31T05:21:51.601Z,99723.59
2024-01-31T05:24:55.850Z,99715.97
2024-01-31T05:28:01.432Z,99720.19
2024-01-31T05:31:06.423Z,99721.81
2024-01-31T05:34:10.650Z,99721.53
2024-01-31T05:37:14.840Z,99715.34
2024-01-31T05:40:19.904Z,99716.47
2024-01-31T05:43:25.613Z,99716.78
2024-01-31T05:46:29.373Z,99719.47
2024-01-31T05:49:34.091Z,99723.63
2024-01-31T05:52:38.023Z,99717.63
2024-01-31T05:55:42.794Z,99732.47
2024-01-31T05:58:48.267Z,99727.88
2024-01-31T06:01:52.796Z,99732.00
2024-01-31T06:04:56.691Z,99742.69
2024-01-31T06:08:02.278Z,99724.81
2024-01-31T06:11:09.957Z,99730.41
2024-01-31T06:14:16.263Z,99737.47
2024-01-31T06:17:20.336Z,99735.66
2024-01-31T06:20:24.390Z,99729.22
2024-01-31T06:23:28.775Z,99732.66
2024-01-31T06:26:33.844Z,99740.31
2024-01-31T06:29:41.177Z,99733.88
2024-01-31T06:32:49.100Z,99731.56
2024-01-31T06:35:53.155Z,99733.19
2024-01-31T06:38:59.862Z,99735.66
2024-01-31T06:42:03.669Z,99721.56
2024-01-31T06:45:11.217Z,99730.06
2024-01-31T06:48:16.626Z,99727.41
2024-01-31T06:51:20.843Z,99720.31
2024-01-31T06:54:24.668Z,99727.63
2024-01-31T06:57:29.027Z,99727.75
2024-01-31T07:00:34.260Z,99721.97
2024-01-31T07:03:38.448Z,99725.06
2024-01-31T07:06:42.301Z,99727.03
2024-01-31T07:09:46.566Z,99724.69
2024-01-31T07:12:51.814Z,99731.25
2024-01-31T07:15:57.319Z,99732.91
2024-01-31T07:19:01.336Z,99725.38
2024-01-31T07:22:05.977Z,99733.97
2024-01-31T07:25:12.339Z,99724.38
2024-01-31T07:28:17.216Z,99731.91
2024-01-31T07:31:22.655Z,99729.56
2024-01-31T07:34:27.062Z,99728.63
2024-01-31T07:37:31.379Z,99720.00
2024-01-31T07:40:35.997Z,99724.91
2024-01-31T07:43:43.539Z,99730.22
2024-01-31T07:46:49.951Z,99722.03
2024-01-31T07:49:53.719Z,99708.88
2024-01-31T07:52:58.201Z,99716.84
2024-01-31T07:56:05.461Z,99712.31
2024-01-31T07:59:10.395Z,99709.44
2024-01-31T08:02:15.713Z,99709.66
2024-01-31T08:05:19.963Z,99712.69
2024-01-31T08:08:23.998Z,99712.88
2024-01-31T08:11:28.683Z,99714.34
2024-01-31T08:14:32.560Z,99704.44
2024-01-31T08:17:38.485Z,99706.94
2024-01-31T08:20:42.312Z,99703.53
2024-01-31T08:23:46.660Z,99704.78
2024-01-31T08:26:52.233Z,99695.31
2024-01-31T08:29:56.760Z,99689.88
2024-01-31T08:33:02.858Z,99694.28
2024-01-31T08:36:07.446Z,99697.25
2024-01-31T08:39:11.413Z,99688.09
2024-01-31T08:42:15.837Z,99687.47
2024-01-31T08:45:19.690Z,99689.34
2024-01-31T08:48:25.780Z,99699.06
2024-01-31T08:51:31.862Z,99694.34
2024-01-31T08:54:36.424Z,99684.00
2024-01-31T08:57:40.551Z,99683.59
2024-01-31T09:00:44.804Z,99686.13
2024-01-31T09:03:51.765Z,99674.38
2024-01-31T09:06:56.383Z,99685.66
2024-01-31T09:10:01.012Z,99666.69
2024-01-31T09:13:05.798Z,99663.81
2024-01-31T09:16:09.889Z,99661.25
2024-01-31T09:19:16.092Z,99662.25
2024-01-31T09:22:19.967Z,99652.63
2024-01-31T09:26:05.292Z,99650.34
2024-01-31T09:29:48.974Z,99645.13
2024-01-31T09:32:53.861Z,99636.00
2024-01-31T09:36:12.288Z,99637.78
2024-01-31T09:39:16.617Z,99636.41
2024-01-31T09:42:20.466Z,99633.03
2024-01-31T09:45:26.486Z,99624.47
2024-01-31T09:48:32.056Z,99625.44
2024-01-31T09:51:38.891Z,99621.59
2024-01-31T09:54:45.275Z,99617.81
2024-01-31T09:57:49.558Z,99612.78
2024-01-31T10:00:56.846Z,99612.47
2024-01-31T10:04:04.530Z,99603.84
2024-01-31T10:07:11.263Z,99603.94
2024-01-31T10:10:15.508Z,99593.81
2024-01-31T10:13:19.460Z,99592.34
2024-01-31T10:16:23.741Z,99592.41
2024-01-31T10:19:27.686Z,99593.31
2024-01-31T10:22:33.992Z,99584.31
2024-01-31T10:25:38.296Z,99582.84
2024-01-31T10:28:45.773Z,99582.16
2024-01-31T10:31:55.051Z,99577.88
2024-01-31T10:35:21.515Z,99579.94
2024-01-31T10:38:27.408Z,99568.56
2024-01-31T10:41:34.261Z,99567.81
2024-01-31T10:44:39.927Z,99567.09
2024-01-31T10:47:45.934Z,99566.31
2024-01-31T10:50:52.367Z,99569.94
2024-01-31T10:53:59.153Z,99561.28
2024-01-31T10:57:06.094Z,99558.16
2024-01-31T11:00:13.006Z,99545.94
2024-01-31T11:03:18.128Z,99547.97
2024-01-31T11:06:26.850Z,99540.06
2024-01-31T11:09:32.098Z,99534.16
2024-01-31T11:12:37.988Z,99530.22
2024-01-31T11:15:42.807Z,99525.50
2024-01-31T11:18:52.890Z,99526.31
2024-01-31T11:21:56.924Z,99523.13
2024-01-31T11:25:05.330Z,99519.59
2024-01-31T11:28:11.113Z,99521.56
2024-01-31T11:31:15.673Z,99514.44
2024-01-31T11:34:19.875Z,99511.69
2024-01-31T11:37:24.073Z,99512.88
2024-01-31T11:40:29.795Z,99500.22
2024-01-31T11:43:36.433Z,99499.81
2024-01-31T11:46:41.075Z,99504.56
2024-01-31T11:49:46.352Z,99498.59
2024-01-31T11:52:55.744Z,99493.84
2024-01-31T11:56:01.866Z,99494.63
2024-01-31T11:59:07.042Z,99487.50
2024-01-31T12:02:12.202Z,99481.94
2024-01-31T12:05:16.510Z,99482.69
2024-01-31T12:08:24.904Z,99481.09
2024-01-31T12:11:30.438Z,99475.53
2024-01-31T12:14:34.789Z,99465.63
2024-01-31T12:17:41.660Z,99463.19
2024-01-31T12:20:45.933Z,99467.53
2024-01-31T12:23:50.095Z,99452.88
2024-01-31T12:26:56.277Z,99440.19
2024-01-31T12:30:00.405Z,99445.28
2024-01-31T12:33:05.233Z,99432.56
2024-01-31T12:36:12.301Z,99432.09
2024-01-31T12:39:20.501Z,99435.97
2024-01-31T12:42:26.093Z,99434.41
2024-01-31T12:45:30.944Z,99429.22
2024-01-31T12:48:35.986Z,99428.00
2024-01-31T12:51:40.817Z,99426.84
2024-01-31T12:54:44.735Z,99425.63
2024-01-31T12:57:50.416Z,99423.69
2024-01-31T13:00:54.322Z,99429.97
2024-01-31T13:03:58.597Z,99430.00
2024-01-31T13:07:03.669Z,99433.97
2024-01-31T13:10:09.526Z,99432.38
2024-01-31T13:13:14.700Z,99433.19
2024-01-31T13:16:18.738Z,99442.72
2024-01-31T13:19:23.709Z,99436.41
2024-01-31T13:22:28.081Z,99436.41
2024-01-31T13:25:31.923Z,99436.75
2024-01-31T13:28:38.934Z,99438.78
2024-01-31T13:31:42.723Z,99431.69
2024-01-31T13:34:46.733Z,99434.47
2024-01-31T13:37:50.662Z,99430.91
2024-01-31T13:40:55.339Z,99435.69
2024-01-31T13:44:00.601Z,99437.34
2024-01-31T13:47:05.713Z,99436.56
2024-01-31T13:50:10.067Z,99432.66
2024-01-31T13:53:13.930Z,99425.94
2024-01-31T13:56:17.636Z,99432.69
2024-01-31T13:59:23.151Z,99430.31
2024-01-31T14:02:26.943Z,99426.34
2024-01-31T14:05:31.186Z,99440.25
2024-01-31T14:08:35.002Z,99433.53
2024-01-31T14:11:39.452Z,99431.19
2024-01-31T14:14:45.790Z,99438.28
2024-01-31T14:17:51.442Z,99443.84
2024-01-31T14:20:55.393Z,99443.81
2024-01-31T14:24:05.206Z,99446.63
2024-01-31T14:27:16.165Z,99444.66
2024-01-31T14:30:21.673Z,99445.06
2024-01-31T14:33:25.463Z,99446.66
2024-01-31T14:36:29.962Z,99449.81
2024-01-31T14:39:33.681Z,99445.50
2024-01-31T14:42:38.367Z,99449.50
2024-01-31T14:45:46.205Z,99444.75
2024-01-31T14:48:51.206Z,99438.84
2024-01-31T14:51:56.436Z,99446.38
2024-01-31T14:55:00.834Z,99436.09
2024-01-31T14:58:05.452Z,99444.41
2024-01-31T15:01:11.440Z,99440.84
2024-01-31T15:04:15.325Z,99433.75
2024-01-31T15:07:19.449Z,99435.34
2024-01-31T15:10:23.097Z,99436.13
2024-01-31T15:13:27.037Z,99428.25
2024-01-31T15:16:32.488Z,99433.38
2024-01-31T15:19:36.959Z,99436.16
2024-01-31T15:22:40.866Z,99435.41
2024-01-31T15:25:45.015Z,99442.50
2024-01-31T15:28:48.989Z,99439.38
2024-01-31T15:31:55.831Z,99433.88
2024-01-31T15:34:59.901Z,99444.94
2024-01-31T15:38:04.366Z,99437.84
2024-01-31T15:41:09.862Z,99431.94
2024-01-31T15:44:15.381Z,99439.84
2024-01-31T15:47:20.721Z,99439.44
2024-01-31T15:50:24.866Z,99452.03
2024-01-31T15:53:28.743Z,99452.81
2024-01-31T15:56:32.978Z,99451.16
2024-01-31T15:59:36.704Z,99460.56
2024-01-31T16:02:42.079Z,99458.97
2024-01-31T16:05:46.012Z,99463.66
2024-01-31T16:08:50.223Z,99470.22
2024-01-31T16:11:54.115Z,99468.97
2024-01-31T16:14:58.734Z,99480.69
2024-01-31T16:18:09.532Z,99479.88
2024-01-31T16:21:14.192Z,99480.53
2024-01-31T16:24:18.478Z,99482.00
2024-01-31T16:27:22.628Z,99489.28
2024-01-31T16:30:26.400Z,99485.31
2024-01-31T16:33:34.582Z,99475.91
2024-01-31T16:36:38.372Z,99484.63
2024-01-31T16:39:45.413Z,99480.88
2024-01-31T16:42:49.475Z,99489.53
2024-01-31T16:45:53.452Z,99497.06
2024-01-31T16:49:00.107Z,99487.47
2024-01-31T16:52:04.318Z,99486.31
2024-01-31T16:55:08.411Z,99485.56
2024-01-31T16:58:12.440Z,99488.31
2024-01-31T17:01:17.059Z,99479.28
2024-01-31T17:04:22.510Z,99487.81
2024-01-31T17:07:26.330Z,99491.13
2024-01-31T17:10:30.438Z,99495.03
2024-01-31T17:13:34.389Z,99498.91
2024-01-31T17:16:44.072Z,99493.00
2024-01-31T17:19:49.756Z,99500.47
2024-01-31T17:22:54.374Z,99499.09
2024-01-31T17:25:57.964Z,99497.38
2024-01-31T17:29:02.293Z,99498.53
2024-01-31T17:32:07.014Z,99504.88
2024-01-31T17:35:12.930Z,99506.31
2024-01-31T17:38:16.640Z,99501.56
2024-01-31T17:41:21.558Z,99504.19
2024-01-31T17:44:25.495Z,99499.19
2024-01-31T17:47:29.905Z,99506.00
2024-01-31T17:50:35.531Z,99506.19
2024-01-31T17:53:39.777Z,99490.72
2024-01-31T17:56:46.698Z,99495.16
2024-01-31T17:59:50.850Z,99488.44
2024-01-31T18:02:54.941Z,99492.44
2024-01-31T18:06:00.644Z,99492.06
2024-01-31T18:09:07.639Z,99494.78
2024-01-31T18:12:19.037Z,99490.84
2024-01-31T18:15:29.741Z,99496.38
2024-01-31T18:18:34.150Z,99492.97
2024-01-31T18:21:40.748Z,99489.34
2024-01-31T18:24:44.756Z,99485.50
2024-01-31T18:27:48.455Z,99483.69
2024-01-31T18:30:52.340Z,99485.34
2024-01-31T18:33:57.636Z,99487.91
2024-01-31T18:37:04.074Z,99489.16
2024-01-31T18:40:09.738Z,99497.22
2024-01-31T18:43:14.180Z,99480.56
2024-01-31T18:46:18.253Z,99496.09
2024-01-31T18:49:22.819Z,99497.38
2024-01-31T18:52:28.319Z,99491.84
2024-01-31T18:55:32.692Z,99485.63
2024-01-31T18:58:36.647Z,99492.63
2024-01-31T19:01:40.792Z,99488.66
2024-01-31T19:04:51.134Z,99494.94
2024-01-31T19:08:01.484Z,99485.72
2024-01-31T19:11:05.475Z,99493.22
2024-01-31T19:14:19.211Z,99494.75
2024-01-31T19:17:27.932Z,99500.97
2024-01-31T19:20:34.598Z,99491.00
2024-01-31T19:23:39.853Z,99480.41
2024-01-31T19:26:44.322Z,99482.47
2024-01-31T19:29:48.048Z,99477.78
2024-01-31T19:32:53.223Z,99484.44
2024-01-31T19:35:57.015Z,99485.91
2024-01-31T19:39:02.555Z,99481.56
2024-01-31T19:42:06.697Z,99481.91
2024-01-31T19:45:11.704Z,99486.66
2024-01-31T19:48:15.891Z,99482.00
2024-01-31T19:51:20.365Z,99479.31
2024-01-31T19:54:26.009Z,99481.41
2024-01-31T19:57:30.945Z,99473.19
2024-01-31T20:00:34.890Z,99458.75
2024-01-31T20:03:40.601Z,99457.34
2024-01-31T20:06:44.615Z,99450.97
2024-01-31T20:09:50.205Z,99456.16
2024-01-31T20:12:54.236Z,99445.88
2024-01-31T20:15:58.522Z,99452.84
2024-01-31T20:19:04.235Z,99461.63
2024-01-31T20:22:08.712Z,99461.63
2024-01-31T20:25:13.795Z,99459.34
2024-01-31T20:28:17.946Z,99454.22
2024-01-31T20:31:21.741Z,99442.16
2024-01-31T20:34:26.281Z,99448.31
2024-01-31T20:37:30.061Z,99440.38
2024-01-31T20:40:35.683Z,99437.56
2024-01-31T20:43:39.506Z,99435.41
2024-01-31T20:46:44.629Z,99436.53
2024-01-31T20:49:50.151Z,99423.28
2024-01-31T20:52:54.193Z,99417.09
2024-01-31T20:56:00.238Z,99410.47
2024-01-31T20:59:05.150Z,99404.97
2024-01-31T21:02:08.839Z,99394.00
2024-01-31T21:05:13.441Z,99398.41
2024-01-31T21:08:17.698Z,99402.69
2024-01-31T21:11:23.584Z,99403.03
2024-01-31T21:14:28.602Z,99410.69
2024-01-31T21:17:32.750Z,99410.28
2024-01-31T21:20:36.780Z,99401.09
2024-01-31T21:23:41.069Z,99403.72
2024-01-31T21:26:46.549Z,99396.66
2024-01-31T21:29:52.856Z,99396.59
2024-01-31T21:32:56.736Z,99393.25
2024-01-31T21:36:01.115Z,99389.91
2024-01-31T21:39:05.351Z,99385.03
2024-01-31T21:42:11.522Z,99389.84
2024-01-31T21:45:15.468Z,99388.78
2024-01-31T21:48:19.908Z,99382.50
2024-01-31T21:51:23.951Z,99385.91
2024-01-31T21:54:27.992Z,99380.84
2024-01-31T21:57:33.565Z,99379.09
2024-01-31T22:00:37.668Z,99378.31
2024-01-31T22:03:50.173Z,99389.25
2024-01-31T22:07:04.122Z,99381.94
2024-01-31T22:10:08.526Z,99385.84
2024-01-31T22:13:14.196Z,99386.00
2024-01-31T22:16:18.082Z,99389.59
2024-01-31T22:19:22.537Z,99385.69
2024-01-31T22:22:26.384Z,99388.69
2024-01-31T22:25:30.632Z,99392.31
2024-01-31T22:28:35.702Z,99383.75
2024-01-31T22:31:44.244Z,99387.41
2024-01-31T22:34:48.120Z,99384.47
2024-01-31T22:37:52.381Z,99383.94
2024-01-31T22:40:59.742Z,99377.59
2024-01-31T22:44:07.881Z,99386.63
2024-01-31T22:47:11.614Z,99378.06
2024-01-31T22:50:16.550Z,99381.31
2024-01-31T22:53:20.318Z,99386.09
2024-01-31T22:56:24.432Z,99399.56
2024-01-31T22:59:29.630Z,99392.94
2024-01-31T23:02:34.559Z,99390.47
2024-01-31T23:05:38.449Z,99389.59
2024-01-31T23:08:42.565Z,99393.31
2024-01-31T23:11:46.741Z,99383.09
2024-01-31T23:14:52.347Z,99379.53
2024-01-31T23:17:56.275Z,99365.25
2024-01-31T23:21:01.898Z,99364.41
2024-01-31T23:24:06.337Z,99365.97
2024-01-31T23:27:14.519Z,99359.25
2024-01-31T23:30:19.783Z,99357.69
2024-01-31T23:33:23.926Z,99360.88
2024-01-31T23:36:29.802Z,99350.25
2024-01-31T23:39:34.040Z,99354.47
2024-01-31T23:42:37.929Z,99356.16
2024-01-31T23:45:43.354Z,99356.41
2024-01-31T23:48:47.607Z,99346.47
2024-01-31T23:51:51.723Z,99355.72
2024-01-31T23:54:55.505Z,99350.16
2024-01-31T23:57:59.649Z,99340.81
